Terminal Aerodrome Forecast
Issued by NWS

Home | Current Version | Previous Version | Text Only | Print | Product List | Glossary On
Versions: 1 2 3 4 5 6 7 8 9 10 11 12 13 14 15 16
591
FTUS42 KTBW 250006 AAA
TAFLAL
TAF AMD
KLAL 250006Z 2500/2524 VRB03KT P6SM BKN050
     FM250500 VRB03KT 5SM BR SCT005 SCT025
     FM250800 VRB03KT 1SM BR SCT004 BKN015
     FM251400 26005KT 6SM BR SCT010 BKN025
     FM251700 28008KT P6SM SCT035=

USA.gov is the U.S. government's official web portal to all federal, state and local government web resources and services.